Terminal Aerodrome Forecast
Issued by NWS

Home | Current Version | Previous Version | Text Only | Print | Product List | Glossary On
Versions: 1 2 3 4 5 6 7 8 9 10 11 12 13 14 15 16 17 18 19
910
FTUS43 KGRR 252131 AAB
TAFLAN
TAF AMD
KLAN 252131Z 2522/2618 08013G19KT P6SM OVC007
     FM260000 09011KT P6SM -SHRA VCTS OVC008CB
      TEMPO 2600/2603 SCT008CB BKN070
     FM260500 09013KT 2SM -DZ BR OVC003
     FM260900 10012KT 1 1/2SM -SHRA OVC008
     FM261600 12008KT 3SM -RA BR OVC015=

USA.gov is the U.S. government's official web portal to all federal, state and local government web resources and services.